Terminal Aerodrome Forecast
Issued by NWS Jacksonville, FL

Home | Current Version | Previous Version | Text Only | Print | Product List | Glossary On
Versions: 1 2 3 4 5 6 7 8 9 10 11 12 13 14 15 16 17 18 19 20 21 22 23 24 25 26 27 28 29
000
FTUS42 KJAX 240800 AAB
TAFSSI
TAF AMD
KSSI 240802Z 2408/2506 19005KT 6SM BR SCT005 OVC012 WS015/22035KT
      TEMPO 2409/2413 3SM BR BKN005
     FM241500 21010G18KT P6SM VCSH BKN020
     FM242300 22007KT P6SM VCSH BKN025=

USA.gov is the U.S. government's official web portal to all federal, state and local government web resources and services.